createdAt,value
2018-07-09T00:01:38.191Z,44.74
2018-07-09T00:17:57.833Z,44.53
2018-07-09T00:20:45.067Z,44.31
2018-07-09T00:20:56.688Z,44.31
2018-07-09T00:22:42.232Z,44.22
2018-07-09T00:23:05.552Z,44.44
2018-07-09T00:24:04.811Z,44.29
2018-07-09T00:25:12.876Z,44.18
2018-07-09T00:27:11.470Z,43.93
2018-07-09T00:29:17.851Z,43.93
2018-07-09T00:29:19.955Z,44.21
2018-07-09T00:30:12.857Z,44.47
2018-07-09T00:31:11.912Z,44.40
2018-07-09T00:32:13.057Z,44.27
2018-07-09T00:33:14.126Z,44.57
2018-07-09T00:34:16.227Z,44.20
2018-07-09T00:35:41.917Z,44.93
2018-07-09T00:39:08.071Z,44.61
2018-07-09T00:50:06.411Z,45.42
2018-07-09T00:51:07.420Z,45.39
2018-07-09T00:51:44.914Z,45.43
2018-07-09T00:52:07.820Z,45.39
2018-07-09T00:53:06.509Z,44.96
2018-07-09T00:54:00.270Z,45.84
2018-07-09T00:55:07.201Z,45.35
2018-07-09T00:56:03.746Z,44.89
2018-07-09T00:59:08.779Z,45.49
2018-07-09T01:00:00.869Z,45.47
2018-07-09T01:01:48.566Z,45.74
2018-07-09T01:02:14.213Z,45.61
2018-07-09T01:03:11.483Z,46.07
2018-07-09T01:05:46.778Z,45.39
2018-07-09T01:07:40.107Z,46.09
2018-07-09T01:08:40.637Z,45.44
2018-07-09T01:09:56.384Z,45.58
2018-07-09T01:12:00.039Z,45.26
2018-07-09T01:12:53.228Z,45.22
2018-07-09T01:14:07.163Z,45.16
2018-07-09T01:14:57.604Z,45.19
2018-07-09T01:16:04.275Z,45.12
2018-07-09T01:16:56.005Z,44.99
2018-07-09T01:25:13.052Z,46.00
2018-07-09T01:43:25.495Z,47.44
2018-07-09T01:43:58.060Z,47.46
2018-07-09T01:44:47.610Z,47.15
2018-07-09T01:47:21.840Z,47.66
2018-07-09T01:48:28.381Z,47.63
2018-07-09T01:49:44.634Z,47.26
2018-07-09T01:51:07.422Z,47.85
2018-07-09T01:53:07.623Z,46.83
2018-07-09T01:55:02.215Z,47.49
2018-07-09T01:56:13.432Z,47.42
2018-07-09T01:57:09.616Z,47.69
2018-07-09T01:58:01.640Z,47.85
2018-07-09T02:06:35.822Z,48.60
2018-07-09T02:07:11.495Z,48.69
2018-07-09T02:08:26.103Z,48.45
2018-07-09T02:10:49.532Z,48.32
2018-07-09T02:12:11.968Z,48.36
2018-07-09T02:14:38.625Z,47.68
2018-07-09T02:15:27.075Z,47.87
2018-07-09T02:17:09.204Z,47.17
2018-07-09T02:18:45.840Z,47.86
2018-07-09T02:19:42.847Z,47.81
2018-07-09T02:20:48.591Z,48.69
2018-07-09T02:21:49.440Z,48.50
2018-07-09T02:23:45.294Z,48.15
2018-07-09T02:23:57.784Z,48.71
2018-07-09T02:24:46.231Z,48.68
2018-07-09T02:27:05.848Z,48.28
2018-07-09T02:27:12.899Z,48.24
2018-07-09T02:28:01.543Z,48.70
2018-07-09T02:57:13.414Z,49.05
2018-07-09T02:57:27.575Z,49.02
2018-07-09T02:59:37.114Z,49.55
2018-07-09T03:00:36.838Z,49.79
2018-07-09T03:01:47.432Z,49.22
2018-07-09T03:02:40.219Z,49.05
2018-07-09T03:47:09.765Z,50.14
2018-07-09T03:48:05.216Z,50.20
2018-07-09T03:50:20.012Z,50.63
2018-07-09T03:51:24.636Z,50.54
2018-07-09T03:52:15.596Z,50.26
2018-07-09T03:53:17.830Z,50.06
2018-07-09T03:54:17.459Z,50.48
2018-07-09T03:55:31.435Z,50.70
2018-07-09T04:15:06.737Z,49.81
2018-07-09T04:16:22.551Z,49.83
2018-07-09T04:35:20.011Z,51.27
2018-07-09T04:35:47.746Z,51.37
2018-07-09T04:36:32.864Z,50.98
2018-07-09T04:37:15.088Z,51.14
2018-07-09T04:38:19.505Z,50.35
2018-07-09T04:39:35.386Z,50.05
2018-07-09T04:40:55.700Z,50.33
2018-07-09T04:41:20.801Z,50.10
2018-07-09T04:43:07.522Z,51.29
2018-07-09T04:43:19.985Z,50.24
2018-07-09T04:45:44.992Z,50.98
2018-07-09T04:49:39.061Z,50.21
2018-07-09T04:50:39.378Z,50.25
2018-07-09T04:51:47.828Z,50.25
2018-07-09T04:52:46.014Z,50.47
2018-07-09T04:53:45.120Z,50.38
2018-07-09T04:56:12.088Z,51.42
2018-07-09T04:57:11.846Z,51.56
2018-07-09T04:58:15.898Z,50.25
2018-07-09T04:59:18.747Z,50.62
2018-07-09T05:00:13.982Z,50.68
2018-07-09T05:01:15.747Z,50.16
2018-07-09T05:02:18.737Z,50.86
2018-07-09T05:03:16.342Z,50.48
2018-07-09T05:04:19.561Z,50.62
2018-07-09T05:10:50.923Z,50.13
2018-07-09T05:11:00.061Z,50.27
2018-07-09T05:11:32.774Z,49.52
2018-07-09T05:14:55.070Z,50.65
2018-07-09T05:15:51.090Z,50.75
2018-07-09T05:17:20.704Z,50.35
2018-07-09T05:18:04.924Z,49.90
2018-07-09T05:26:17.654Z,50.25
2018-07-09T05:26:57.439Z,50.25
2018-07-09T05:28:28.077Z,50.31
2018-07-09T05:29:03.441Z,50.54
2018-07-09T05:32:20.149Z,50.01
2018-07-09T05:33:49.326Z,50.03
2018-07-09T05:34:49.095Z,50.05
2018-07-09T05:35:50.616Z,50.12
2018-07-09T05:36:50.446Z,49.15
2018-07-09T05:37:58.092Z,49.61
2018-07-09T05:38:54.747Z,50.39
2018-07-09T05:39:49.546Z,49.78
2018-07-09T05:40:58.869Z,49.30
2018-07-09T05:41:59.412Z,49.58
2018-07-09T05:43:02.231Z,48.97
2018-07-09T05:43:54.937Z,49.20
2018-07-09T05:44:53.497Z,49.71
2018-07-09T05:46:06.752Z,48.72
2018-07-09T05:47:06.403Z,48.70
2018-07-09T05:47:58.212Z,48.78
2018-07-09T05:48:56.724Z,48.56
2018-07-09T05:49:58.528Z,48.33
2018-07-09T05:51:01.047Z,48.43
2018-07-09T05:51:58.791Z,47.98
2018-07-09T05:53:00.600Z,47.66
2018-07-09T05:54:01.441Z,48.07
2018-07-09T05:55:01.198Z,48.23
2018-07-09T05:56:05.124Z,47.84
2018-07-09T05:57:05.633Z,47.49
2018-07-09T05:58:05.609Z,47.71
2018-07-09T05:59:04.190Z,47.43
2018-07-09T06:00:08.394Z,48.04
2018-07-09T06:01:05.761Z,48.04
2018-07-09T06:02:09.948Z,47.51
2018-07-09T06:03:07.351Z,47.79
2018-07-09T06:04:11.550Z,47.21
2018-07-09T06:05:08.938Z,47.76
2018-07-09T06:06:10.705Z,46.95
2018-07-09T06:07:11.472Z,47.13
2018-07-09T06:08:12.278Z,46.80
2018-07-09T06:09:13.082Z,47.21
2018-07-09T06:10:16.540Z,46.89
2018-07-09T06:11:13.675Z,46.71
2018-07-09T06:12:14.394Z,46.78
2018-07-09T06:13:16.191Z,46.50
2018-07-09T06:14:17.032Z,46.38
2018-07-09T06:15:16.827Z,46.32
2018-07-09T06:16:17.699Z,46.25
2018-07-09T06:17:18.445Z,46.28
2018-07-09T06:18:20.268Z,46.01
2018-07-09T06:19:21.151Z,45.84
2018-07-09T06:20:23.274Z,45.89
2018-07-09T06:21:28.801Z,45.78
2018-07-09T06:22:22.419Z,45.77
2018-07-09T06:23:26.623Z,45.65
2018-07-09T06:24:24.014Z,45.45
2018-07-09T06:25:28.360Z,45.33
2018-07-09T06:26:42.960Z,45.33
2018-07-09T06:27:26.404Z,45.26
2018-07-09T06:28:28.284Z,45.34
2018-07-09T06:29:30.213Z,45.17
2018-07-09T06:30:31.614Z,45.40
2018-07-09T06:31:31.572Z,45.18
2018-07-09T06:35:47.215Z,44.43
2018-07-09T06:36:59.427Z,44.34
2018-07-09T06:37:48.935Z,44.64
2018-07-09T06:38:54.720Z,44.27
2018-07-09T06:39:48.406Z,44.03
2018-07-09T06:41:55.324Z,44.44
2018-07-09T06:42:22.640Z,44.08
2018-07-09T06:43:30.959Z,43.55
2018-07-09T06:44:38.095Z,43.52
2018-07-09T06:46:14.089Z,43.47
2018-07-09T06:47:04.841Z,43.43
2018-07-09T06:48:05.701Z,43.42
2018-07-09T06:49:06.458Z,43.29
2018-07-09T06:50:13.985Z,43.44
2018-07-09T06:51:13.239Z,43.30
2018-07-09T06:52:09.618Z,43.29
2018-07-09T06:53:07.365Z,43.46
2018-07-09T06:54:09.161Z,43.24
2018-07-09T06:55:09.968Z,43.32
2018-07-09T06:56:13.309Z,43.18
2018-07-09T06:57:10.560Z,43.47
2018-07-09T06:58:18.336Z,43.91
2018-07-09T07:04:58.340Z,42.55
2018-07-09T07:05:41.561Z,42.48
2018-07-09T07:06:35.049Z,42.75
2018-07-09T07:07:45.294Z,42.51
2018-07-09T07:08:42.664Z,42.45
2018-07-09T07:10:22.272Z,42.48
2018-07-09T07:11:14.661Z,42.10
2018-07-09T07:12:17.372Z,42.27
2018-07-09T07:13:15.240Z,42.40
2018-07-09T07:24:14.775Z,41.24
2018-07-09T07:25:11.597Z,41.24
2018-07-09T07:29:39.158Z,40.58
2018-07-09T07:31:39.906Z,40.52
2018-07-09T07:36:11.403Z,40.05
2018-07-09T08:13:27.164Z,27.20
2018-07-09T08:13:47.423Z,27.21
2018-07-09T08:14:48.216Z,27.01
2018-07-09T08:15:48.960Z,26.89
2018-07-09T08:16:53.523Z,26.78
2018-07-09T08:17:51.303Z,26.62
2018-07-09T08:18:52.077Z,26.47
2018-07-09T08:19:52.852Z,26.28
2018-07-09T08:20:53.643Z,26.22
2018-07-09T08:21:54.414Z,25.93
2018-07-09T08:22:55.210Z,25.85
2018-07-09T08:23:54.957Z,25.58
2018-07-09T08:24:56.854Z,25.65
2018-07-09T08:25:56.533Z,25.18
2018-07-09T08:26:58.492Z,25.03
2018-07-09T08:27:58.169Z,24.95
2018-07-09T08:28:59.948Z,24.67
2018-07-09T08:30:00.711Z,24.47
2018-07-09T08:31:01.599Z,24.49
2018-07-09T08:32:01.301Z,24.44
2018-07-09T08:33:03.072Z,24.19
2018-07-09T08:34:03.826Z,24.00
2018-07-09T08:35:04.602Z,23.91
2018-07-09T08:36:05.400Z,23.83
2018-07-09T08:37:06.172Z,23.78
2018-07-09T08:38:06.945Z,23.66
2018-07-09T08:39:07.719Z,23.44
2018-07-09T08:40:08.491Z,23.44
2018-07-09T08:41:09.296Z,23.42
2018-07-09T08:42:10.060Z,23.24
2018-07-09T08:43:10.845Z,23.22
2018-07-09T08:44:11.606Z,23.00
2018-07-09T08:45:12.380Z,23.12
2018-07-09T08:46:13.180Z,22.99
2018-07-09T08:47:14.046Z,22.97
2018-07-09T08:48:13.772Z,22.89
2018-07-09T08:49:15.544Z,22.84
2018-07-09T08:50:16.320Z,22.78
2018-07-09T08:51:17.120Z,22.58
2018-07-09T08:52:17.888Z,22.47
2018-07-09T08:53:18.663Z,22.37
2018-07-09T08:54:19.434Z,22.46
2018-07-09T08:55:20.270Z,22.19
2018-07-09T08:56:20.029Z,22.04
2018-07-09T08:57:21.800Z,22.00
2018-07-09T08:58:22.584Z,21.96
2018-07-09T08:59:23.356Z,21.85
2018-07-09T09:00:24.132Z,22.00
2018-07-09T09:01:24.935Z,21.79
2018-07-09T09:02:25.708Z,21.93
2018-07-09T09:03:26.482Z,21.81
2018-07-09T09:04:27.255Z,22.00
2018-07-09T09:05:28.028Z,21.56
2018-07-09T09:06:28.821Z,21.86
2018-07-09T09:07:29.594Z,22.07
2018-07-09T09:08:30.366Z,22.14
2018-07-09T09:09:31.140Z,22.05
2018-07-09T09:10:31.917Z,22.19
2018-07-09T09:11:32.710Z,22.03
2018-07-09T09:12:33.481Z,21.47
2018-07-09T09:13:34.258Z,21.40
2018-07-09T09:14:35.028Z,20.96
2018-07-09T09:15:35.805Z,21.32
2018-07-09T09:16:36.652Z,20.86
2018-07-09T09:17:36.374Z,21.12
2018-07-09T09:18:38.150Z,21.01
2018-07-09T09:19:38.931Z,20.79
2018-07-09T09:20:39.711Z,20.57
2018-07-09T09:21:40.507Z,20.45
2018-07-09T09:22:41.284Z,21.08
2018-07-09T09:23:42.055Z,21.65
2018-07-09T09:24:42.827Z,21.67
2018-07-09T09:25:43.604Z,21.46
2018-07-09T09:26:44.402Z,21.29
2018-07-09T09:27:45.172Z,20.86
2018-07-09T09:28:45.948Z,20.73
2018-07-09T09:29:46.717Z,21.03
2018-07-09T09:30:47.488Z,20.61
2018-07-09T09:31:48.286Z,20.72
2018-07-09T09:32:49.120Z,20.50
2018-07-09T09:33:48.834Z,20.71
2018-07-09T09:34:56.610Z,20.84
2018-07-09T09:35:51.382Z,21.72
2018-07-09T09:38:54.653Z,21.20
2018-07-09T09:39:55.428Z,21.20
2018-07-09T09:40:56.198Z,20.79
2018-07-09T09:41:56.998Z,20.69
2018-07-09T09:42:57.765Z,20.66
2018-07-09T09:43:58.541Z,20.68
2018-07-09T09:44:59.311Z,20.76
2018-07-09T09:46:00.084Z,22.33
2018-07-09T09:47:00.884Z,23.74
2018-07-09T09:48:01.653Z,23.49
2018-07-09T09:49:02.429Z,23.43
2018-07-09T09:50:03.202Z,23.20
2018-07-09T09:51:03.976Z,23.06
2018-07-09T09:52:04.786Z,23.07
2018-07-09T09:53:05.554Z,22.80
2018-07-09T09:54:06.329Z,22.10
2018-07-09T09:55:07.259Z,22.04
2018-07-09T09:56:06.873Z,22.60
2018-07-09T09:57:08.688Z,22.96
2018-07-09T09:58:09.464Z,22.33
2018-07-09T09:59:10.237Z,24.11
2018-07-09T10:00:11.003Z,24.72
2018-07-09T10:01:11.778Z,25.92
2018-07-09T10:02:12.577Z,26.08
2018-07-09T10:03:13.341Z,26.53
2018-07-09T10:04:14.116Z,26.72
2018-07-09T10:05:14.891Z,26.89
2018-07-09T10:06:15.675Z,26.73
2018-07-09T10:08:32.978Z,27.62
2018-07-09T10:09:34.571Z,27.87
2018-07-09T10:10:17.886Z,27.24
2018-07-09T10:10:33.050Z,27.37
2018-07-09T10:11:22.429Z,27.60
2018-07-09T10:12:20.249Z,27.35
2018-07-09T10:13:24.110Z,27.49
2018-07-09T10:14:23.660Z,26.92
2018-07-09T10:15:31.124Z,25.92
2018-07-09T10:16:22.898Z,25.67
2018-07-09T10:17:27.089Z,24.29
2018-07-09T10:18:22.836Z,23.53
2018-07-09T10:19:24.599Z,23.19
2018-07-09T10:20:25.412Z,22.99
2018-07-09T10:21:26.159Z,23.45
2018-07-09T10:22:29.651Z,23.46
2018-07-09T10:23:26.776Z,23.92
2018-07-09T10:24:27.547Z,23.13
2018-07-09T10:25:31.490Z,22.50
2018-07-09T10:27:12.738Z,22.39
2018-07-09T10:27:32.710Z,22.19
2018-07-09T10:28:31.485Z,21.88
2018-07-09T10:29:32.260Z,21.71
2018-07-09T10:30:50.392Z,22.37
2018-07-09T10:32:42.482Z,22.08
2018-07-09T10:34:19.675Z,22.02
2018-07-09T10:34:37.214Z,22.54
2018-07-09T10:35:38.980Z,22.89
2018-07-09T10:36:39.780Z,23.13
2018-07-09T10:37:40.560Z,25.09
2018-07-09T10:38:44.109Z,26.84
2018-07-09T10:40:19.369Z,27.24
2018-07-09T10:40:41.706Z,26.29
2018-07-09T10:41:43.467Z,25.35
2018-07-09T10:43:17.319Z,24.18
2018-07-09T10:44:33.164Z,24.19
2018-07-09T10:45:41.724Z,24.77
2018-07-09T10:46:15.689Z,26.00
2018-07-09T10:47:19.924Z,26.30
2018-07-09T10:48:17.301Z,25.84
2018-07-09T10:49:19.082Z,25.10
2018-07-09T10:50:28.664Z,24.95
2018-07-09T10:51:28.760Z,24.69
2018-07-09T10:52:35.810Z,25.91
2018-07-09T10:53:21.058Z,27.08
2018-07-09T10:54:21.978Z,27.95
2018-07-09T10:55:41.026Z,27.33
2018-07-09T10:56:23.536Z,27.52
2018-07-09T10:57:25.321Z,28.13
2018-07-09T10:58:26.110Z,28.54
2018-07-09T10:59:26.892Z,28.50
2018-07-09T11:00:27.674Z,27.67
2018-07-09T11:01:33.883Z,27.24
2018-07-09T11:02:28.248Z,26.64
2018-07-09T11:03:33.041Z,26.59
2018-07-09T11:04:33.631Z,27.01
2018-07-09T11:05:39.576Z,27.53
2018-07-09T11:06:34.169Z,28.03
2018-07-09T11:07:31.899Z,28.08
2018-07-09T11:08:33.677Z,27.87
2018-07-09T11:09:34.572Z,27.74
2018-07-09T11:10:34.257Z,28.37
2018-07-09T11:11:36.061Z,28.84
2018-07-09T11:12:42.188Z,29.23
2018-07-09T11:13:45.213Z,28.77
2018-07-09T11:14:39.621Z,29.00
2018-07-09T11:15:38.246Z,28.76
2018-07-09T11:16:49.636Z,29.05
2018-07-09T11:17:39.823Z,29.08
2018-07-09T11:18:42.993Z,29.37
2018-07-09T11:19:41.382Z,29.34
2018-07-09T11:20:48.583Z,29.31
2018-07-09T11:21:43.099Z,29.21
2018-07-09T11:22:46.167Z,29.08
2018-07-09T11:23:44.526Z,29.06
2018-07-09T11:24:46.332Z,29.20
2018-07-09T11:25:49.389Z,28.80
2018-07-09T11:27:02.218Z,28.82
2018-07-09T11:27:47.452Z,29.07
2018-07-09T11:28:49.247Z,29.16
2018-07-09T11:29:49.044Z,29.48
2018-07-09T11:30:53.202Z,29.13
2018-07-09T11:31:50.581Z,29.02
2018-07-09T11:32:55.386Z,29.18
2018-07-09T11:34:30.860Z,29.17
2018-07-09T11:35:36.435Z,29.10
2018-07-09T11:36:28.488Z,29.55
2018-07-09T11:37:36.656Z,29.35
2018-07-09T11:39:04.505Z,28.93
2018-07-09T11:40:04.278Z,29.01
2018-07-09T11:41:05.083Z,29.01
2018-07-09T11:42:05.923Z,29.74
2018-07-09T11:43:05.757Z,29.87
2018-07-09T11:44:06.455Z,29.80
2018-07-09T11:45:08.220Z,29.67
2018-07-09T11:46:12.024Z,29.59
2018-07-09T11:47:08.847Z,29.70
2018-07-09T11:48:09.582Z,29.56
2018-07-09T11:49:14.129Z,29.36
2018-07-09T11:50:17.632Z,29.16
2018-07-09T12:04:52.300Z,29.35
2018-07-09T12:05:48.309Z,29.32
2018-07-09T12:07:55.974Z,29.30
2018-07-09T12:10:06.153Z,28.98
2018-07-09T12:10:55.668Z,28.72
2018-07-09T12:11:57.891Z,28.42
2018-07-09T12:12:56.077Z,28.33
2018-07-09T12:14:12.403Z,28.49
2018-07-09T12:15:42.654Z,28.27
2018-07-09T12:20:28.540Z,27.32
2018-07-09T12:21:26.281Z,27.30
2018-07-09T12:22:35.373Z,27.02
2018-07-09T12:24:04.746Z,26.84
2018-07-09T12:25:05.546Z,26.99
2018-07-09T12:27:20.290Z,28.08
2018-07-09T12:28:13.901Z,28.02
2018-07-09T12:29:18.080Z,27.78
2018-07-09T12:30:15.489Z,27.27
2018-07-09T12:31:17.290Z,26.35
2018-07-09T12:33:01.186Z,26.15
2018-07-09T12:33:34.917Z,25.78
2018-07-09T12:34:29.971Z,25.55
2018-07-09T12:35:32.544Z,25.47
2018-07-09T12:36:22.685Z,26.60
2018-07-09T12:37:22.831Z,27.10
2018-07-09T12:38:23.458Z,27.18
2018-07-09T12:39:22.025Z,26.87
2018-07-09T12:40:25.761Z,26.36
2018-07-09T12:41:24.568Z,26.77
2018-07-09T12:42:27.450Z,26.77
2018-07-09T12:43:25.227Z,27.02
2018-07-09T12:44:43.681Z,27.25
2018-07-09T12:45:26.760Z,27.66
2018-07-09T12:46:33.984Z,28.03
2018-07-09T12:47:35.666Z,28.29
2018-07-09T12:48:37.323Z,28.07
2018-07-09T12:50:12.073Z,28.25
2018-07-09T12:51:17.551Z,28.67
2018-07-09T12:52:51.238Z,28.64
2018-07-09T12:53:51.007Z,28.74
2018-07-09T12:54:55.389Z,28.75
2018-07-09T12:55:52.552Z,28.75
2018-07-09T12:56:54.313Z,29.04
2018-07-09T12:57:55.107Z,29.05
2018-07-09T12:58:58.926Z,29.32
2018-07-09T12:59:55.674Z,29.06
2018-07-09T13:00:57.461Z,29.31
2018-07-09T13:01:58.242Z,29.69
2018-07-09T13:02:59.049Z,29.40
2018-07-09T13:04:02.162Z,29.66
2018-07-09T13:05:12.993Z,29.84
2018-07-09T13:09:18.324Z,29.75
2018-07-09T13:10:16.093Z,29.75
2018-07-09T13:11:16.883Z,29.90
2018-07-09T13:15:59.366Z,29.84
2018-07-09T13:16:30.192Z,29.83
2018-07-09T13:17:01.156Z,29.23
2018-07-09T13:18:07.353Z,29.18
2018-07-09T13:19:53.313Z,29.53
2018-07-09T13:21:44.411Z,29.52
2018-07-09T13:23:41.990Z,29.69
2018-07-09T13:24:44.326Z,29.97
2018-07-09T13:25:49.285Z,30.07
2018-07-09T13:25:49.802Z,29.42
2018-07-09T13:27:00.983Z,30.28
2018-07-09T13:27:49.685Z,30.19
2018-07-09T13:28:52.274Z,30.03
2018-07-09T13:30:28.211Z,30.20
2018-07-09T13:30:57.856Z,30.08
2018-07-09T13:32:24.733Z,30.33
2018-07-09T13:36:42.175Z,30.53
2018-07-09T13:37:42.383Z,30.51
2018-07-09T13:38:39.750Z,30.71
2018-07-09T13:39:47.528Z,30.77
2018-07-09T13:40:48.303Z,30.85
2018-07-09T13:41:43.119Z,30.60
2018-07-09T13:43:46.654Z,30.55
2018-07-09T13:44:01.711Z,30.67
2018-07-09T13:44:45.481Z,30.64
2018-07-09T13:45:45.207Z,30.70
2018-07-09T13:46:47.005Z,30.74
2018-07-09T13:47:50.186Z,30.68
2018-07-09T13:48:47.573Z,30.90
2018-07-09T13:49:49.327Z,30.71
2018-07-09T13:50:50.112Z,30.73
2018-07-09T13:51:50.905Z,30.66
2018-07-09T13:52:51.677Z,30.70
2018-07-09T13:54:25.770Z,30.95
2018-07-09T13:56:47.607Z,30.96
2018-07-09T13:57:36.131Z,30.94
2018-07-09T13:59:22.746Z,31.54
2018-07-09T14:00:13.869Z,31.53
2018-07-09T14:01:17.675Z,31.46
2018-07-09T14:03:28.974Z,31.56
2018-07-09T14:05:57.294Z,31.48
2018-07-09T14:06:29.858Z,31.51
2018-07-09T14:07:39.291Z,31.45
2018-07-09T14:08:31.995Z,31.53
2018-07-09T14:22:30.422Z,31.44
2018-07-09T14:23:31.222Z,31.47
2018-07-09T14:24:30.962Z,31.43
2018-07-09T14:25:32.769Z,31.36
2018-07-09T14:26:32.541Z,31.33
2018-07-09T14:27:36.766Z,31.24
2018-07-09T14:28:34.134Z,31.17
2018-07-09T14:29:35.885Z,31.13
2018-07-09T14:30:36.712Z,30.97
2018-07-09T14:31:39.980Z,31.01
2018-07-09T14:32:37.307Z,31.02
2018-07-09T14:33:39.100Z,31.09
2018-07-09T14:34:39.863Z,31.08
2018-07-09T14:35:40.677Z,31.20
2018-07-09T14:36:41.468Z,31.19
2018-07-09T14:37:42.295Z,31.24
2018-07-09T14:38:42.079Z,31.27
2018-07-09T14:39:46.285Z,31.23
2018-07-09T14:40:46.406Z,31.24
2018-07-09T14:41:45.182Z,31.31
2018-07-09T14:42:45.947Z,31.45
2018-07-09T14:43:48.942Z,31.45
2018-07-09T14:44:53.721Z,31.41
2018-07-09T14:45:47.304Z,31.44
2018-07-09T14:46:49.162Z,31.54
2018-07-09T14:47:57.155Z,31.46
2018-07-09T14:50:23.257Z,31.55
2018-07-09T14:50:31.447Z,31.66
2018-07-09T14:54:36.796Z,31.76
2018-07-09T14:55:55.217Z,31.77
2018-07-09T14:57:10.588Z,31.70
2018-07-09T14:58:15.308Z,31.72
2018-07-09T14:59:44.503Z,31.73
2018-07-09T15:01:00.892Z,31.74
2018-07-09T15:02:02.438Z,31.51
2018-07-09T15:02:57.060Z,31.59
2018-07-09T15:03:46.701Z,31.68
2018-07-09T15:04:50.493Z,31.76
2018-07-09T15:05:48.266Z,31.73
2018-07-09T15:06:53.141Z,31.71
2018-07-09T15:07:49.845Z,31.70
2018-07-09T15:08:54.013Z,31.81
2018-07-09T15:09:54.290Z,31.72
2018-07-09T15:10:51.927Z,31.70
2018-07-09T15:11:53.709Z,31.81
2018-07-09T15:12:59.682Z,31.81
2018-07-09T15:13:54.044Z,31.86
2018-07-09T15:14:55.834Z,31.85
2018-07-09T15:15:58.767Z,31.65
2018-07-09T15:17:02.402Z,31.85
2018-07-09T15:19:08.158Z,31.94
2018-07-09T15:20:03.722Z,31.95
2018-07-09T15:21:12.642Z,31.95
2018-07-09T15:24:06.886Z,32.11
2018-07-09T15:24:45.201Z,32.06
2018-07-09T15:25:24.481Z,32.07
2018-07-09T15:26:08.373Z,32.07
2018-07-09T15:27:40.479Z,32.27
2018-07-09T15:28:41.608Z,32.26
2018-07-09T15:29:40.004Z,32.43
2018-07-09T15:30:45.677Z,32.33
2018-07-09T15:31:41.407Z,32.53
2018-07-09T15:33:43.006Z,32.51
2018-07-09T15:35:04.904Z,32.55
2018-07-09T15:35:47.339Z,32.50
2018-07-09T15:36:46.167Z,32.67
2018-07-09T15:37:45.932Z,32.74
2018-07-09T15:45:48.045Z,32.93
2018-07-09T15:46:46.762Z,32.95
2018-07-09T15:48:32.313Z,33.01
2018-07-09T15:50:25.090Z,33.00
2018-07-09T15:51:19.597Z,32.93
2018-07-09T15:52:54.381Z,32.68
2018-07-09T15:53:47.153Z,32.65
2018-07-09T15:54:45.932Z,32.93
2018-07-09T15:55:52.127Z,32.85
2018-07-09T15:56:48.744Z,32.88
2018-07-09T15:57:55.499Z,32.85
2018-07-09T15:59:08.490Z,32.75
2018-07-09T16:00:06.628Z,32.93
2018-07-09T16:00:49.222Z,32.88
2018-07-09T16:01:54.167Z,33.04
2018-07-09T16:02:57.986Z,33.04
2018-07-09T16:03:55.740Z,33.13
2018-07-09T16:05:09.886Z,33.04
2018-07-09T16:07:08.146Z,33.07
2018-07-09T16:08:20.839Z,33.06
2018-07-09T16:08:55.250Z,32.94
2018-07-09T16:09:00.760Z,33.20
2018-07-09T16:09:56.064Z,33.00
2018-07-09T16:10:56.836Z,33.15
2018-07-09T16:11:58.596Z,33.07
2018-07-09T16:14:01.611Z,33.13
2018-07-09T16:14:41.422Z,33.21
2018-07-09T16:17:00.946Z,33.09
2018-07-09T16:18:23.047Z,33.11
2018-07-09T16:23:44.432Z,33.07
2018-07-09T16:23:46.931Z,33.09
2018-07-09T16:24:08.910Z,32.88
2018-07-09T16:26:23.242Z,33.11
2018-07-09T16:27:27.417Z,33.17
2018-07-09T16:28:21.802Z,33.25
2018-07-09T16:29:29.605Z,33.03
2018-07-09T16:30:30.157Z,33.17
2018-07-09T16:31:23.947Z,33.01
2018-07-09T16:32:25.737Z,33.30
2018-07-09T16:33:28.690Z,33.12
2018-07-09T16:34:28.448Z,33.02
2018-07-09T16:35:27.169Z,33.11
2018-07-09T16:36:30.322Z,33.05
2018-07-09T16:37:28.692Z,32.88
2018-07-09T16:38:30.473Z,33.23
2018-07-09T16:39:31.247Z,33.32
2018-07-09T16:40:32.096Z,33.35
2018-07-09T16:41:32.848Z,33.34
2018-07-09T16:42:42.229Z,33.34
2018-07-09T16:43:50.751Z,33.08
2018-07-09T16:44:37.031Z,32.95
2018-07-09T16:51:06.838Z,33.42
2018-07-09T16:52:04.812Z,33.38
2018-07-09T16:53:05.721Z,33.35
2018-07-09T16:54:12.044Z,33.45
2018-07-09T16:55:06.319Z,33.24
2018-07-09T16:56:13.939Z,33.21
2018-07-09T16:57:13.710Z,33.17
2018-07-09T16:58:23.642Z,33.12
2018-07-09T16:59:07.108Z,33.14
2018-07-09T17:00:32.521Z,33.02
2018-07-09T17:01:19.307Z,33.31
2018-07-09T17:02:15.052Z,33.00
2018-07-09T17:06:46.307Z,33.43
2018-07-09T17:07:41.498Z,33.46
2018-07-09T17:18:16.564Z,34.00
2018-07-09T17:18:29.749Z,33.94
2018-07-09T17:22:47.336Z,33.93
2018-07-09T17:23:15.608Z,33.90
2018-07-09T17:26:04.244Z,34.18
2018-07-09T17:27:46.245Z,33.84
2018-07-09T17:28:29.561Z,33.84
2018-07-09T17:29:28.383Z,33.70
2018-07-09T17:31:34.901Z,33.89
2018-07-09T17:45:53.996Z,34.68
2018-07-09T17:47:20.600Z,34.71
2018-07-09T17:47:27.776Z,34.68
2018-07-09T17:51:36.465Z,34.57
2018-07-09T17:53:16.965Z,34.94
2018-07-09T17:53:32.129Z,34.90
2018-07-09T17:57:08.270Z,35.27
2018-07-09T18:17:34.108Z,36.01
2018-07-09T18:18:19.499Z,35.95
2018-07-09T18:20:20.702Z,36.00
2018-07-09T18:20:45.450Z,35.98
2018-07-09T18:21:53.178Z,36.19
2018-07-09T18:30:24.040Z,36.78
2018-07-09T18:31:26.173Z,36.78
2018-07-09T18:34:17.941Z,36.75
2018-07-09T18:35:29.368Z,36.99
2018-07-09T18:53:22.670Z,37.57
2018-07-09T18:55:46.533Z,37.69
2018-07-09T18:56:47.717Z,37.92
2018-07-09T18:57:25.585Z,37.84
2018-07-09T18:58:23.209Z,37.97
2018-07-09T19:01:48.093Z,38.13
2018-07-09T19:02:24.043Z,38.04
2018-07-09T19:02:47.218Z,38.10
2018-07-09T19:02:48.919Z,37.57
2018-07-09T19:02:57.793Z,38.16
2018-07-09T19:03:25.024Z,38.20
2018-07-09T19:04:28.108Z,38.43
2018-07-09T19:06:31.116Z,38.43
2018-07-09T19:07:36.226Z,38.45
2018-07-09T19:08:43.667Z,38.52
2018-07-09T19:11:21.580Z,38.66
2018-07-09T19:11:42.317Z,38.73
2018-07-09T19:13:49.168Z,38.72
2018-07-09T19:14:06.357Z,38.98
2018-07-09T19:14:53.437Z,39.08
2018-07-09T19:15:07.092Z,38.68
2018-07-09T19:15:36.374Z,39.22
2018-07-09T19:16:45.656Z,39.24
2018-07-09T19:17:34.352Z,39.30
2018-07-09T19:20:03.517Z,39.39
2018-07-09T19:20:23.214Z,39.58
2018-07-09T19:21:32.289Z,39.84
2018-07-09T19:22:36.219Z,39.81
2018-07-09T19:23:38.900Z,39.69
2018-07-09T19:25:37.660Z,39.63
2018-07-09T19:26:52.769Z,39.63
2018-07-09T19:28:37.423Z,39.77
2018-07-09T19:29:48.693Z,39.63
2018-07-09T19:30:38.993Z,39.79
2018-07-09T19:31:39.824Z,39.92
2018-07-09T19:32:44.661Z,39.84
2018-07-09T19:57:46.677Z,40.57
2018-07-09T19:58:51.318Z,40.66
2018-07-09T19:59:47.287Z,40.88
2018-07-09T20:00:49.945Z,40.71
2018-07-09T20:02:53.750Z,40.77
2018-07-09T20:04:24.682Z,40.70
2018-07-09T20:14:16.802Z,41.49
2018-07-09T20:16:03.793Z,41.70
2018-07-09T20:17:04.848Z,41.56
2018-07-09T20:21:43.118Z,41.37
2018-07-09T20:22:17.491Z,41.54
2018-07-09T20:26:04.184Z,41.45
2018-07-09T20:28:06.010Z,41.48
2018-07-09T20:28:11.048Z,41.38
2018-07-09T20:28:56.350Z,41.55
2018-07-09T20:30:05.878Z,41.40
2018-07-09T20:33:07.587Z,41.51
2018-07-09T20:35:53.300Z,41.94
2018-07-09T20:38:29.668Z,42.12
2018-07-09T20:46:17.855Z,42.50
2018-07-09T20:47:31.290Z,42.50
2018-07-09T20:58:18.961Z,42.32
2018-07-09T20:59:43.501Z,42.22
2018-07-09T21:04:07.029Z,42.40
2018-07-09T21:14:25.310Z,42.53
2018-07-09T21:16:43.850Z,42.53
2018-07-09T21:17:25.865Z,42.70
2018-07-09T21:41:12.893Z,43.04
2018-07-09T21:42:05.751Z,43.02
2018-07-09T21:43:06.503Z,43.83
2018-07-09T21:44:10.211Z,42.91
2018-07-09T21:45:08.075Z,42.69
2018-07-09T21:46:11.364Z,43.61
2018-07-09T21:47:09.741Z,43.73
2018-07-09T21:48:11.017Z,43.76
2018-07-09T21:49:13.918Z,43.73
2018-07-09T21:51:33.492Z,43.87
2018-07-09T21:51:52.120Z,44.09
2018-07-09T21:52:31.173Z,43.59
2018-07-09T21:53:19.830Z,44.25
2018-07-09T21:54:15.711Z,43.40
2018-07-09T21:55:16.530Z,44.62
2018-07-09T21:56:20.084Z,43.81
2018-07-09T21:57:41.792Z,43.30
2018-07-09T21:58:19.964Z,44.69
2018-07-09T21:59:21.430Z,43.54
2018-07-09T22:00:22.355Z,43.32
2018-07-09T22:01:22.748Z,44.44
2018-07-09T22:03:43.350Z,45.34
2018-07-09T22:03:59.700Z,45.30
2018-07-09T22:05:03.501Z,44.41
2018-07-09T22:06:36.633Z,44.91